EWG2R LIMC-EDDH
Flight info
| Callsign | EWG2R |
|---|---|
| Flight time | 1h 24m |
| Altitude | 36000 |
| Route | PEPAG DCT ABESI N851 UTAVO DCT ROLSA/N0436F370 DCT LOKTA DCT TEDGO DCT HAREM DCT LOHRE DCT MASEK DCT ELNAT/N0437F380 P605 NOLGO NOLGO3P |
| Aircraft | A320/M-SDE3FGHIRWY/LB1 |
Departure
| Time | 2026-04-24 19:24 |
|---|---|
| Airport | Milan Malpensa International Airport (LIMC) |
Arrival
| Time | 2026-04-24 20:48 |
|---|---|
| Airport | Hamburg Helmut Schmidt Airport (EDDH) |
| Time | Latitude | Longitude | Altitude | Speed | Heading |
|---|---|---|---|---|---|
| 2026-04-24 18:54 | 45.62374 | 8.71578 | 736 ft | 0 kts | 11° |
| 2026-04-24 19:06 | 45.62369 | 8.71576 | 736 ft | 3 kts | 11° |
| 2026-04-24 19:07 | 45.62343 | 8.71571 | 736 ft | 4 kts | 4° |
| 2026-04-24 19:07 | 45.62316 | 8.71568 | 735 ft | 4 kts | 5° |
| 2026-04-24 19:07 | 45.62291 | 8.71561 | 734 ft | 4 kts | 45° |
| 2026-04-24 19:07 | 45.62287 | 8.71557 | 734 ft | 3 kts | 73° |
| 2026-04-24 19:08 | 45.62291 | 8.71595 | 735 ft | 4 kts | 83° |
| 2026-04-24 19:08 | 45.62294 | 8.71633 | 736 ft | 4 kts | 83° |
| 2026-04-24 19:08 | 45.62298 | 8.71671 | 736 ft | 4 kts | 82° |
| 2026-04-24 19:08 | 45.62303 | 8.71709 | 736 ft | 4 kts | 79° |
| 2026-04-24 19:09 | 45.62305 | 8.71724 | 736 ft | 0 kts | 78° |
| 2026-04-24 19:11 | 45.62306 | 8.71734 | 736 ft | 4 kts | 78° |
| 2026-04-24 19:12 | 45.62322 | 8.71809 | 736 ft | 11 kts | 71° |
| 2026-04-24 19:12 | 45.62329 | 8.71901 | 736 ft | 8 kts | 111° |
| 2026-04-24 19:12 | 45.62277 | 8.71934 | 735 ft | 12 kts | 170° |
| 2026-04-24 19:12 | 45.62167 | 8.71966 | 736 ft | 21 kts | 169° |
| 2026-04-24 19:13 | 45.62069 | 8.71991 | 736 ft | 22 kts | 169° |
| 2026-04-24 19:13 | 45.61864 | 8.72049 | 737 ft | 23 kts | 169° |
| 2026-04-24 19:13 | 45.61703 | 8.72093 | 735 ft | 24 kts | 169° |
| 2026-04-24 19:13 | 45.61538 | 8.72139 | 737 ft | 26 kts | 168° |
| 2026-04-24 19:14 | 45.61360 | 8.72187 | 736 ft | 26 kts | 169° |
| 2026-04-24 19:14 | 45.61183 | 8.72237 | 735 ft | 26 kts | 169° |
| 2026-04-24 19:14 | 45.61002 | 8.72287 | 737 ft | 27 kts | 169° |
| 2026-04-24 19:14 | 45.60824 | 8.72336 | 737 ft | 23 kts | 169° |
| 2026-04-24 19:15 | 45.60685 | 8.72375 | 736 ft | 18 kts | 160° |
| 2026-04-24 19:15 | 45.60636 | 8.72528 | 737 ft | 18 kts | 97° |
| 2026-04-24 19:15 | 45.60622 | 8.72716 | 737 ft | 20 kts | 96° |
| 2026-04-24 19:15 | 45.60608 | 8.72916 | 737 ft | 21 kts | 96° |
| 2026-04-24 19:16 | 45.60659 | 8.73291 | 736 ft | 21 kts | 20° |
| 2026-04-24 19:16 | 45.60792 | 8.73362 | 737 ft | 20 kts | 20° |
| 2026-04-24 19:16 | 45.60913 | 8.73404 | 735 ft | 16 kts | 349° |
| 2026-04-24 19:17 | 45.61018 | 8.73374 | 737 ft | 14 kts | 348° |
| 2026-04-24 19:17 | 45.61109 | 8.73348 | 737 ft | 12 kts | 349° |
| 2026-04-24 19:17 | 45.61210 | 8.73319 | 736 ft | 16 kts | 348° |
| 2026-04-24 19:17 | 45.61314 | 8.73291 | 737 ft | 14 kts | 348° |
| 2026-04-24 19:18 | 45.61420 | 8.73262 | 737 ft | 16 kts | 350° |
| 2026-04-24 19:18 | 45.61524 | 8.73232 | 735 ft | 12 kts | 347° |
| 2026-04-24 19:18 | 45.61597 | 8.73217 | 737 ft | 9 kts | 11° |
| 2026-04-24 19:18 | 45.61620 | 8.73285 | 736 ft | 7 kts | 81° |
| 2026-04-24 19:19 | 45.61627 | 8.73349 | 737 ft | 6 kts | 81° |
| 2026-04-24 19:19 | 45.61632 | 8.73403 | 737 ft | 5 kts | 81° |
| 2026-04-24 19:19 | 45.61629 | 8.73442 | 737 ft | 3 kts | 122° |
| 2026-04-24 19:19 | 45.61610 | 8.73482 | 736 ft | 8 kts | 123° |
| 2026-04-24 19:20 | 45.61587 | 8.73555 | 737 ft | 7 kts | 105° |
| 2026-04-24 19:20 | 45.61585 | 8.73613 | 737 ft | 4 kts | 82° |
| 2026-04-24 19:20 | 45.61585 | 8.73614 | 737 ft | 0 kts | 82° |
| 2026-04-24 19:20 | 45.61585 | 8.73615 | 737 ft | 1 kts | 82° |
| 2026-04-24 19:21 | 45.61593 | 8.73674 | 737 ft | 7 kts | 72° |
| 2026-04-24 19:21 | 45.61612 | 8.73732 | 736 ft | 5 kts | 44° |
| 2026-04-24 19:21 | 45.61640 | 8.73730 | 737 ft | 3 kts | 340° |
| 2026-04-24 19:21 | 45.61650 | 8.73727 | 737 ft | 0 kts | 349° |
| 2026-04-24 19:22 | 45.61651 | 8.73727 | 735 ft | 2 kts | 349° |
| 2026-04-24 19:23 | 45.61835 | 8.73675 | 737 ft | 64 kts | 349° |
| 2026-04-24 19:23 | 45.62490 | 8.73496 | 739 ft | 125 kts | 349° |
| 2026-04-24 19:23 | 45.63516 | 8.73212 | 740 ft | 172 kts | 349° |
| 2026-04-24 19:23 | 45.64757 | 8.72873 | 1189 ft | 180 kts | 350° |
| 2026-04-24 19:24 | 45.65966 | 8.72820 | 2004 ft | 171 kts | 19° |
| 2026-04-24 19:24 | 45.66874 | 8.73873 | 2484 ft | 180 kts | 62° |
| 2026-04-24 19:24 | 45.67357 | 8.75538 | 3056 ft | 184 kts | 75° |
| 2026-04-24 19:24 | 45.67683 | 8.77329 | 3600 ft | 189 kts | 68° |
| 2026-04-24 19:25 | 45.68370 | 8.78955 | 4132 ft | 196 kts | 47° |
| 2026-04-24 19:25 | 45.69455 | 8.80243 | 4556 ft | 211 kts | 32° |
| 2026-04-24 19:25 | 45.70741 | 8.81360 | 5113 ft | 220 kts | 29° |
| 2026-04-24 19:25 | 45.72069 | 8.82504 | 5830 ft | 223 kts | 36° |
| 2026-04-24 19:26 | 45.73058 | 8.84224 | 6505 ft | 231 kts | 66° |
| 2026-04-24 19:26 | 45.73306 | 8.86535 | 7084 ft | 243 kts | 91° |
| 2026-04-24 19:26 | 45.73279 | 8.88973 | 7795 ft | 245 kts | 82° |
| 2026-04-24 19:26 | 45.73605 | 8.91377 | 8535 ft | 247 kts | 73° |
| 2026-04-24 19:27 | 45.74022 | 8.93770 | 9321 ft | 249 kts | 73° |
| 2026-04-24 19:27 | 45.74440 | 8.96186 | 10105 ft | 250 kts | 73° |
| 2026-04-24 19:27 | 45.74865 | 8.98614 | 10761 ft | 257 kts | 73° |
| 2026-04-24 19:27 | 45.75353 | 9.01168 | 11086 ft | 277 kts | 70° |
| 2026-04-24 19:28 | 45.75983 | 9.03891 | 11314 ft | 300 kts | 70° |
| 2026-04-24 19:28 | 45.76658 | 9.06848 | 11518 ft | 324 kts | 71° |
| 2026-04-24 19:28 | 45.77322 | 9.10021 | 11899 ft | 339 kts | 73° |
| 2026-04-24 19:28 | 45.77944 | 9.13304 | 12540 ft | 345 kts | 74° |
| 2026-04-24 19:29 | 45.79531 | 9.19833 | 13872 ft | 352 kts | 56° |
| 2026-04-24 19:29 | 45.81166 | 9.22433 | 14449 ft | 355 kts | 37° |
| 2026-04-24 19:29 | 45.83343 | 9.24087 | 15037 ft | 358 kts | 17° |
| 2026-04-24 19:30 | 45.85807 | 9.24535 | 15638 ft | 361 kts | 356° |
| 2026-04-24 19:30 | 45.88253 | 9.23707 | 16250 ft | 365 kts | 336° |
| 2026-04-24 19:30 | 45.90366 | 9.21676 | 16838 ft | 370 kts | 315° |
| 2026-04-24 19:30 | 45.92026 | 9.18833 | 17413 ft | 374 kts | 309° |
| 2026-04-24 19:31 | 45.93636 | 9.15884 | 18008 ft | 377 kts | 309° |
| 2026-04-24 19:31 | 45.95260 | 9.12907 | 18561 ft | 380 kts | 310° |
| 2026-04-24 19:31 | 45.97095 | 9.10237 | 19034 ft | 382 kts | 322° |
| 2026-04-24 19:31 | 45.99322 | 9.08147 | 19522 ft | 384 kts | 334° |
| 2026-04-24 19:32 | 46.01819 | 9.06779 | 20029 ft | 386 kts | 346° |
| 2026-04-24 19:32 | 46.04464 | 9.06157 | 20545 ft | 387 kts | 354° |
| 2026-04-24 19:32 | 46.07152 | 9.05730 | 21037 ft | 390 kts | 354° |
| 2026-04-24 19:32 | 46.09857 | 9.05291 | 21523 ft | 392 kts | 354° |
| 2026-04-24 19:33 | 46.12580 | 9.04846 | 21967 ft | 395 kts | 354° |
| 2026-04-24 19:33 | 46.15314 | 9.04399 | 22461 ft | 398 kts | 354° |
| 2026-04-24 19:33 | 46.18081 | 9.03962 | 22917 ft | 400 kts | 355° |
| 2026-04-24 19:33 | 46.20863 | 9.03571 | 23361 ft | 403 kts | 355° |
| 2026-04-24 19:34 | 46.23664 | 9.03207 | 23793 ft | 405 kts | 356° |
| 2026-04-24 19:34 | 46.26479 | 9.02850 | 24168 ft | 408 kts | 356° |
| 2026-04-24 19:34 | 46.29314 | 9.02490 | 24524 ft | 410 kts | 356° |
| 2026-04-24 19:34 | 46.32161 | 9.02122 | 24881 ft | 412 kts | 356° |
| 2026-04-24 19:35 | 46.35024 | 9.01745 | 25245 ft | 414 kts | 356° |
| 2026-04-24 19:35 | 46.37905 | 9.01358 | 25606 ft | 417 kts | 356° |
| 2026-04-24 19:35 | 46.40806 | 9.00962 | 25991 ft | 419 kts | 356° |
| 2026-04-24 19:35 | 46.43720 | 9.00564 | 26340 ft | 422 kts | 356° |
| 2026-04-24 19:36 | 46.46651 | 9.00166 | 26703 ft | 424 kts | 356° |
| 2026-04-24 19:36 | 46.49598 | 8.99769 | 27051 ft | 426 kts | 356° |
| 2026-04-24 19:36 | 46.52558 | 8.99373 | 27379 ft | 429 kts | 356° |
| 2026-04-24 19:36 | 46.55540 | 8.98975 | 27691 ft | 431 kts | 356° |
| 2026-04-24 19:37 | 46.58537 | 8.98572 | 28018 ft | 434 kts | 356° |
| 2026-04-24 19:37 | 46.61543 | 8.98168 | 28361 ft | 436 kts | 356° |
| 2026-04-24 19:37 | 46.64575 | 8.97757 | 28711 ft | 438 kts | 355° |
| 2026-04-24 19:37 | 46.67616 | 8.97342 | 29051 ft | 440 kts | 356° |
| 2026-04-24 19:38 | 46.70668 | 8.96925 | 29380 ft | 442 kts | 356° |
| 2026-04-24 19:38 | 46.73738 | 8.96505 | 29683 ft | 444 kts | 355° |
| 2026-04-24 19:38 | 46.76827 | 8.96082 | 29932 ft | 448 kts | 355° |
| 2026-04-24 19:38 | 46.79945 | 8.95656 | 30185 ft | 451 kts | 355° |
| 2026-04-24 19:39 | 46.83077 | 8.95360 | 30410 ft | 452 kts | 3° |
| 2026-04-24 19:39 | 46.86166 | 8.96157 | 30624 ft | 452 kts | 19° |
| 2026-04-24 19:39 | 46.89141 | 8.97692 | 30838 ft | 455 kts | 15° |
| 2026-04-24 19:39 | 46.92277 | 8.98152 | 31052 ft | 457 kts | 355° |
| 2026-04-24 19:40 | 46.95438 | 8.97509 | 31249 ft | 460 kts | 349° |
| 2026-04-24 19:40 | 46.98564 | 8.96508 | 31579 ft | 459 kts | 346° |
| 2026-04-24 19:40 | 47.01664 | 8.95419 | 31930 ft | 458 kts | 346° |
| 2026-04-24 19:40 | 47.04770 | 8.94403 | 32246 ft | 458 kts | 348° |
| 2026-04-24 19:41 | 47.07889 | 8.93526 | 32612 ft | 456 kts | 349° |
| 2026-04-24 19:41 | 47.11019 | 8.92775 | 32971 ft | 455 kts | 351° |
| 2026-04-24 19:41 | 47.14145 | 8.92107 | 33320 ft | 454 kts | 351° |
| 2026-04-24 19:41 | 47.17272 | 8.91473 | 33674 ft | 453 kts | 351° |
| 2026-04-24 19:42 | 47.20384 | 8.90837 | 33991 ft | 452 kts | 351° |
| 2026-04-24 19:42 | 47.23508 | 8.90176 | 34292 ft | 452 kts | 351° |
| 2026-04-24 19:42 | 47.26624 | 8.89562 | 34576 ft | 452 kts | 354° |
| 2026-04-24 19:42 | 47.29763 | 8.89524 | 34853 ft | 452 kts | 3° |
| 2026-04-24 19:43 | 47.32875 | 8.90191 | 35106 ft | 453 kts | 12° |
| 2026-04-24 19:43 | 47.35908 | 8.91192 | 35344 ft | 453 kts | 12° |
| 2026-04-24 19:43 | 47.39017 | 8.92224 | 35591 ft | 452 kts | 12° |
| 2026-04-24 19:43 | 47.42045 | 8.93230 | 35828 ft | 452 kts | 12° |
| 2026-04-24 19:44 | 47.45152 | 8.94266 | 36065 ft | 451 kts | 11° |
| 2026-04-24 19:44 | 47.48175 | 8.95270 | 36287 ft | 451 kts | 11° |
| 2026-04-24 19:44 | 47.51237 | 8.96286 | 36493 ft | 451 kts | 11° |
| 2026-04-24 19:44 | 47.54299 | 8.97306 | 36707 ft | 451 kts | 11° |
| 2026-04-24 19:45 | 47.57360 | 8.98322 | 36929 ft | 451 kts | 11° |
| 2026-04-24 19:45 | 47.60426 | 8.99338 | 37098 ft | 451 kts | 11° |
| 2026-04-24 19:45 | 47.63479 | 9.00351 | 37156 ft | 450 kts | 11° |
| 2026-04-24 19:46 | 47.69575 | 9.02384 | 37153 ft | 449 kts | 11° |
| 2026-04-24 19:46 | 47.75672 | 9.04422 | 37157 ft | 449 kts | 11° |
| 2026-04-24 19:47 | 47.81767 | 9.06472 | 37158 ft | 449 kts | 11° |
| 2026-04-24 19:47 | 47.87858 | 9.08521 | 37169 ft | 449 kts | 11° |
| 2026-04-24 19:48 | 47.93952 | 9.10576 | 37170 ft | 449 kts | 11° |
| 2026-04-24 19:48 | 48.03100 | 9.13664 | 37174 ft | 449 kts | 11° |
| 2026-04-24 19:49 | 48.14310 | 9.17473 | 37176 ft | 449 kts | 10° |
| 2026-04-24 19:50 | 48.26644 | 9.19965 | 37169 ft | 447 kts | 4° |
| 2026-04-24 19:51 | 48.35926 | 9.21519 | 37178 ft | 447 kts | 4° |
| 2026-04-24 19:52 | 48.45202 | 9.23091 | 37172 ft | 447 kts | 4° |
| 2026-04-24 19:52 | 48.51384 | 9.24142 | 37163 ft | 447 kts | 4° |
| 2026-04-24 19:53 | 48.57560 | 9.25191 | 37175 ft | 447 kts | 4° |
| 2026-04-24 19:54 | 48.66824 | 9.26726 | 37175 ft | 446 kts | 3° |
| 2026-04-24 19:54 | 48.73005 | 9.27649 | 37183 ft | 446 kts | 2° |
| 2026-04-24 19:55 | 48.78145 | 9.28404 | 37181 ft | 447 kts | 2° |
| 2026-04-24 19:55 | 48.85369 | 9.29502 | 37172 ft | 446 kts | 2° |
| 2026-04-24 19:56 | 48.91543 | 9.30466 | 37159 ft | 446 kts | 2° |
| 2026-04-24 19:56 | 48.97716 | 9.31422 | 37168 ft | 446 kts | 2° |
| 2026-04-24 19:57 | 49.03884 | 9.32373 | 37159 ft | 445 kts | 2° |
| 2026-04-24 19:57 | 49.10049 | 9.33319 | 37150 ft | 446 kts | 2° |
| 2026-04-24 19:58 | 49.16178 | 9.34264 | 37166 ft | 446 kts | 2° |
| 2026-04-24 19:58 | 49.22386 | 9.35237 | 37162 ft | 445 kts | 2° |
| 2026-04-24 19:59 | 49.28511 | 9.36212 | 37151 ft | 445 kts | 2° |
| 2026-04-24 19:59 | 49.34681 | 9.37185 | 37144 ft | 446 kts | 2° |
| 2026-04-24 20:00 | 49.40902 | 9.38147 | 37155 ft | 447 kts | 1° |
| 2026-04-24 20:00 | 49.47050 | 9.39108 | 37156 ft | 447 kts | 1° |
| 2026-04-24 20:01 | 49.53278 | 9.40090 | 37159 ft | 447 kts | 2° |
| 2026-04-24 20:01 | 49.59431 | 9.41075 | 37169 ft | 447 kts | 1° |
| 2026-04-24 20:02 | 49.64617 | 9.41898 | 37169 ft | 447 kts | 1° |
| 2026-04-24 20:02 | 49.71807 | 9.43028 | 37167 ft | 447 kts | 1° |
| 2026-04-24 20:03 | 49.77987 | 9.44017 | 37165 ft | 446 kts | 1° |
| 2026-04-24 20:03 | 49.84167 | 9.45002 | 37185 ft | 446 kts | 1° |
| 2026-04-24 20:04 | 49.90338 | 9.45991 | 37185 ft | 446 kts | 1° |
| 2026-04-24 20:04 | 49.96548 | 9.47005 | 37180 ft | 445 kts | 1° |
| 2026-04-24 20:05 | 50.02671 | 9.47989 | 37174 ft | 445 kts | 1° |
| 2026-04-24 20:05 | 50.08829 | 9.48985 | 37187 ft | 445 kts | 1° |
| 2026-04-24 20:06 | 50.15022 | 9.50022 | 37187 ft | 445 kts | 1° |
| 2026-04-24 20:06 | 50.21170 | 9.51069 | 37182 ft | 444 kts | 1° |
| 2026-04-24 20:07 | 50.26278 | 9.51931 | 37061 ft | 444 kts | 1° |
| 2026-04-24 20:07 | 50.30387 | 9.52628 | 36877 ft | 443 kts | 1° |
| 2026-04-24 20:07 | 50.33454 | 9.53145 | 36755 ft | 443 kts | 1° |
| 2026-04-24 20:07 | 50.36520 | 9.53660 | 36637 ft | 443 kts | 1° |
| 2026-04-24 20:08 | 50.39591 | 9.54171 | 36489 ft | 444 kts | 1° |
| 2026-04-24 20:08 | 50.42658 | 9.54681 | 36362 ft | 444 kts | 1° |
| 2026-04-24 20:08 | 50.45734 | 9.55196 | 36171 ft | 444 kts | 1° |
| 2026-04-24 20:09 | 50.51877 | 9.56242 | 36168 ft | 444 kts | 1° |
| 2026-04-24 20:09 | 50.58020 | 9.57300 | 36164 ft | 444 kts | 1° |
| 2026-04-24 20:10 | 50.64121 | 9.58337 | 36175 ft | 444 kts | 0° |
| 2026-04-24 20:10 | 50.70260 | 9.59386 | 36173 ft | 444 kts | 1° |
| 2026-04-24 20:11 | 50.76403 | 9.60464 | 36174 ft | 444 kts | 1° |
| 2026-04-24 20:11 | 50.82543 | 9.61651 | 36169 ft | 445 kts | 2° |
| 2026-04-24 20:12 | 50.88686 | 9.62889 | 36171 ft | 445 kts | 1° |
| 2026-04-24 20:12 | 50.94820 | 9.64104 | 36178 ft | 444 kts | 1° |
| 2026-04-24 20:13 | 51.00952 | 9.65287 | 36170 ft | 444 kts | 1° |
| 2026-04-24 20:13 | 51.07084 | 9.66477 | 36166 ft | 444 kts | 1° |
| 2026-04-24 20:14 | 51.13220 | 9.67685 | 36165 ft | 444 kts | 1° |
| 2026-04-24 20:14 | 51.19351 | 9.68891 | 36172 ft | 444 kts | 1° |
| 2026-04-24 20:15 | 51.25468 | 9.70005 | 36169 ft | 442 kts | 360° |
| 2026-04-24 20:15 | 51.31580 | 9.70946 | 36169 ft | 441 kts | 359° |
| 2026-04-24 20:16 | 51.37687 | 9.71891 | 36165 ft | 441 kts | 360° |
| 2026-04-24 20:16 | 51.43800 | 9.72882 | 36166 ft | 441 kts | 0° |
| 2026-04-24 20:17 | 51.49900 | 9.73908 | 36167 ft | 441 kts | 1° |
| 2026-04-24 20:17 | 51.59002 | 9.75658 | 36168 ft | 441 kts | 1° |
| 2026-04-24 20:18 | 51.65100 | 9.76841 | 36186 ft | 441 kts | 1° |
| 2026-04-24 20:18 | 51.71190 | 9.77995 | 36172 ft | 440 kts | 1° |
| 2026-04-24 20:19 | 51.77275 | 9.79145 | 36172 ft | 440 kts | 1° |
| 2026-04-24 20:19 | 51.83359 | 9.80307 | 36166 ft | 440 kts | 1° |
| 2026-04-24 20:20 | 51.89438 | 9.81471 | 36178 ft | 440 kts | 1° |
| 2026-04-24 20:20 | 51.95519 | 9.82647 | 35904 ft | 443 kts | 1° |
| 2026-04-24 20:21 | 51.98581 | 9.83243 | 35281 ft | 443 kts | 1° |
| 2026-04-24 20:21 | 52.01642 | 9.83840 | 34675 ft | 442 kts | 1° |
| 2026-04-24 20:21 | 52.04697 | 9.84435 | 34058 ft | 441 kts | 1° |
| 2026-04-24 20:21 | 52.07739 | 9.85028 | 33378 ft | 440 kts | 1° |
| 2026-04-24 20:22 | 52.10769 | 9.85619 | 32703 ft | 438 kts | 1° |
| 2026-04-24 20:22 | 52.13795 | 9.86213 | 32087 ft | 437 kts | 1° |
| 2026-04-24 20:22 | 52.16810 | 9.86810 | 31457 ft | 436 kts | 1° |
| 2026-04-24 20:22 | 52.19813 | 9.87407 | 30836 ft | 434 kts | 1° |
| 2026-04-24 20:23 | 52.22809 | 9.88020 | 30228 ft | 433 kts | 1° |
| 2026-04-24 20:23 | 52.25792 | 9.88653 | 29522 ft | 432 kts | 1° |
| 2026-04-24 20:23 | 52.28769 | 9.89301 | 28830 ft | 430 kts | 2° |
| 2026-04-24 20:23 | 52.31730 | 9.89949 | 28154 ft | 429 kts | 2° |
| 2026-04-24 20:24 | 52.33683 | 9.90377 | 27719 ft | 427 kts | 2° |
| 2026-04-24 20:24 | 52.37617 | 9.91232 | 26871 ft | 425 kts | 2° |
| 2026-04-24 20:24 | 52.40537 | 9.91859 | 26239 ft | 422 kts | 2° |
| 2026-04-24 20:24 | 52.43443 | 9.92486 | 25621 ft | 420 kts | 3° |
| 2026-04-24 20:25 | 52.46321 | 9.93116 | 25123 ft | 414 kts | 3° |
| 2026-04-24 20:25 | 52.49166 | 9.93742 | 24646 ft | 410 kts | 3° |
| 2026-04-24 20:25 | 52.51986 | 9.94360 | 24177 ft | 407 kts | 3° |
| 2026-04-24 20:25 | 52.54785 | 9.94970 | 23710 ft | 404 kts | 4° |
| 2026-04-24 20:26 | 52.57560 | 9.95578 | 23161 ft | 401 kts | 4° |
| 2026-04-24 20:26 | 52.60318 | 9.96179 | 22633 ft | 398 kts | 3° |
| 2026-04-24 20:26 | 52.63052 | 9.96774 | 22113 ft | 394 kts | 4° |
| 2026-04-24 20:26 | 52.65761 | 9.97365 | 21589 ft | 391 kts | 4° |
| 2026-04-24 20:27 | 52.68447 | 9.97950 | 21082 ft | 387 kts | 4° |
| 2026-04-24 20:27 | 52.71106 | 9.98530 | 20581 ft | 384 kts | 4° |
| 2026-04-24 20:27 | 52.73746 | 9.99109 | 20087 ft | 381 kts | 4° |
| 2026-04-24 20:27 | 52.76358 | 9.99683 | 19603 ft | 378 kts | 4° |
| 2026-04-24 20:28 | 52.78955 | 10.00258 | 19158 ft | 375 kts | 4° |
| 2026-04-24 20:28 | 52.81529 | 10.00829 | 18757 ft | 371 kts | 4° |
| 2026-04-24 20:28 | 52.84075 | 10.01394 | 18366 ft | 367 kts | 4° |
| 2026-04-24 20:28 | 52.86596 | 10.01953 | 17907 ft | 364 kts | 4° |
| 2026-04-24 20:29 | 52.88250 | 10.02322 | 17612 ft | 361 kts | 4° |
| 2026-04-24 20:29 | 52.91563 | 10.03059 | 17023 ft | 357 kts | 4° |
| 2026-04-24 20:29 | 52.94020 | 10.03604 | 16584 ft | 354 kts | 4° |
| 2026-04-24 20:29 | 52.96448 | 10.04139 | 16153 ft | 351 kts | 4° |
| 2026-04-24 20:30 | 52.98862 | 10.04675 | 15726 ft | 349 kts | 4° |
| 2026-04-24 20:30 | 53.01258 | 10.05212 | 15302 ft | 346 kts | 4° |
| 2026-04-24 20:30 | 53.03635 | 10.05744 | 14890 ft | 343 kts | 4° |
| 2026-04-24 20:30 | 53.05994 | 10.06136 | 14478 ft | 337 kts | 355° |
| 2026-04-24 20:31 | 53.08284 | 10.05547 | 14081 ft | 331 kts | 345° |
| 2026-04-24 20:31 | 53.10521 | 10.04696 | 13670 ft | 329 kts | 344° |
| 2026-04-24 20:31 | 53.12740 | 10.03830 | 13247 ft | 326 kts | 344° |
| 2026-04-24 20:31 | 53.14943 | 10.02959 | 12826 ft | 324 kts | 344° |
| 2026-04-24 20:32 | 53.17053 | 10.02117 | 12432 ft | 322 kts | 344° |
| 2026-04-24 20:32 | 53.19218 | 10.01247 | 12035 ft | 319 kts | 344° |
| 2026-04-24 20:32 | 53.21366 | 10.00377 | 11661 ft | 317 kts | 344° |
| 2026-04-24 20:32 | 53.23502 | 9.99508 | 11339 ft | 315 kts | 344° |
| 2026-04-24 20:33 | 53.25621 | 9.98640 | 11018 ft | 313 kts | 344° |
| 2026-04-24 20:33 | 53.27728 | 9.97769 | 10704 ft | 311 kts | 344° |
| 2026-04-24 20:33 | 53.29821 | 9.96898 | 10388 ft | 309 kts | 344° |
| 2026-04-24 20:33 | 53.31899 | 9.96029 | 10111 ft | 307 kts | 344° |
| 2026-04-24 20:34 | 53.33950 | 9.95169 | 9827 ft | 300 kts | 344° |
| 2026-04-24 20:34 | 53.35278 | 9.94619 | 9648 ft | 294 kts | 344° |
| 2026-04-24 20:34 | 53.37239 | 9.93839 | 9377 ft | 286 kts | 348° |
| 2026-04-24 20:34 | 53.39205 | 9.93955 | 9126 ft | 285 kts | 12° |
| 2026-04-24 20:35 | 53.40934 | 9.95543 | 8866 ft | 287 kts | 38° |
| 2026-04-24 20:35 | 53.42304 | 9.97968 | 8608 ft | 284 kts | 44° |
| 2026-04-24 20:35 | 53.43589 | 10.00455 | 8350 ft | 281 kts | 44° |
| 2026-04-24 20:35 | 53.44857 | 10.02932 | 8119 ft | 279 kts | 44° |
| 2026-04-24 20:36 | 53.46120 | 10.05396 | 7871 ft | 278 kts | 44° |
| 2026-04-24 20:36 | 53.47379 | 10.07850 | 7612 ft | 277 kts | 44° |
| 2026-04-24 20:36 | 53.48635 | 10.10294 | 7355 ft | 276 kts | 44° |
| 2026-04-24 20:36 | 53.49889 | 10.12733 | 7105 ft | 275 kts | 44° |
| 2026-04-24 20:37 | 53.51139 | 10.15160 | 6872 ft | 274 kts | 44° |
| 2026-04-24 20:37 | 53.52384 | 10.17582 | 6709 ft | 273 kts | 44° |
| 2026-04-24 20:37 | 53.53624 | 10.19993 | 6574 ft | 273 kts | 44° |
| 2026-04-24 20:37 | 53.54867 | 10.22406 | 6462 ft | 272 kts | 44° |
| 2026-04-24 20:38 | 53.56105 | 10.24810 | 6346 ft | 272 kts | 44° |
| 2026-04-24 20:38 | 53.57339 | 10.27223 | 6214 ft | 272 kts | 44° |
| 2026-04-24 20:38 | 53.58568 | 10.29638 | 6094 ft | 272 kts | 44° |
| 2026-04-24 20:38 | 53.59795 | 10.32049 | 5959 ft | 271 kts | 44° |
| 2026-04-24 20:39 | 53.61017 | 10.34458 | 5825 ft | 270 kts | 44° |
| 2026-04-24 20:39 | 53.62239 | 10.36863 | 5695 ft | 270 kts | 44° |
| 2026-04-24 20:39 | 53.63488 | 10.39202 | 5568 ft | 264 kts | 36° |
| 2026-04-24 20:39 | 53.64952 | 10.40867 | 5445 ft | 246 kts | 25° |
| 2026-04-24 20:40 | 53.66397 | 10.42275 | 5312 ft | 234 kts | 25° |
| 2026-04-24 20:40 | 53.67792 | 10.43618 | 5192 ft | 229 kts | 24° |
| 2026-04-24 20:40 | 53.69171 | 10.44945 | 5087 ft | 228 kts | 24° |
| 2026-04-24 20:40 | 53.70588 | 10.46060 | 4990 ft | 220 kts | 6° |
| 2026-04-24 20:41 | 53.72062 | 10.45861 | 4987 ft | 213 kts | 340° |
| 2026-04-24 20:41 | 53.73444 | 10.44944 | 4978 ft | 214 kts | 335° |
| 2026-04-24 20:41 | 53.74809 | 10.43932 | 4984 ft | 215 kts | 334° |
| 2026-04-24 20:41 | 53.76174 | 10.42905 | 4987 ft | 215 kts | 334° |
| 2026-04-24 20:42 | 53.77442 | 10.41616 | 4989 ft | 214 kts | 313° |
| 2026-04-24 20:42 | 53.78138 | 10.39393 | 4737 ft | 220 kts | 283° |
| 2026-04-24 20:42 | 53.78096 | 10.36798 | 4437 ft | 223 kts | 266° |
| 2026-04-24 20:42 | 53.77838 | 10.34212 | 4138 ft | 223 kts | 265° |
| 2026-04-24 20:43 | 53.77547 | 10.31636 | 3865 ft | 223 kts | 264° |
| 2026-04-24 20:43 | 53.77252 | 10.29074 | 3594 ft | 222 kts | 264° |
| 2026-04-24 20:43 | 53.76682 | 10.26641 | 3313 ft | 229 kts | 240° |
| 2026-04-24 20:43 | 53.75680 | 10.24551 | 3068 ft | 226 kts | 236° |
| 2026-04-24 20:44 | 53.74696 | 10.22568 | 3004 ft | 214 kts | 237° |
| 2026-04-24 20:44 | 53.73786 | 10.20720 | 3009 ft | 196 kts | 237° |
| 2026-04-24 20:44 | 53.72946 | 10.19002 | 2931 ft | 186 kts | 238° |
| 2026-04-24 20:44 | 53.72134 | 10.17340 | 2731 ft | 182 kts | 238° |
| 2026-04-24 20:45 | 53.71337 | 10.15710 | 2502 ft | 179 kts | 238° |
| 2026-04-24 20:45 | 53.70551 | 10.14105 | 2270 ft | 176 kts | 238° |
| 2026-04-24 20:45 | 53.69777 | 10.12528 | 2033 ft | 173 kts | 238° |
| 2026-04-24 20:45 | 53.69021 | 10.10990 | 1792 ft | 166 kts | 237° |
| 2026-04-24 20:46 | 53.68312 | 10.09550 | 1569 ft | 154 kts | 238° |
| 2026-04-24 20:46 | 53.67650 | 10.08203 | 1358 ft | 146 kts | 238° |
| 2026-04-24 20:46 | 53.67012 | 10.06903 | 1153 ft | 142 kts | 237° |
| 2026-04-24 20:46 | 53.66378 | 10.05616 | 954 ft | 142 kts | 237° |
| 2026-04-24 20:47 | 53.65751 | 10.04345 | 768 ft | 139 kts | 237° |
| 2026-04-24 20:47 | 53.65143 | 10.03105 | 584 ft | 136 kts | 238° |
| 2026-04-24 20:47 | 53.64543 | 10.01873 | 407 ft | 136 kts | 235° |
| 2026-04-24 20:47 | 53.63930 | 10.00639 | 210 ft | 137 kts | 236° |
| 2026-04-24 20:48 | 53.63327 | 9.99412 | 49 ft | 132 kts | 229° |
| 2026-04-24 20:48 | 53.62887 | 9.98517 | 44 ft | 57 kts | 230° |
| 2026-04-24 20:48 | 53.62751 | 9.98365 | 43 ft | 14 kts | 151° |
| 2026-04-24 20:48 | 53.62684 | 9.98434 | 46 ft | 8 kts | 142° |
| 2026-04-24 20:49 | 53.62668 | 9.98500 | 47 ft | 5 kts | 74° |
| 2026-04-24 20:49 | 53.62687 | 9.98544 | 44 ft | 4 kts | 52° |
| 2026-04-24 20:49 | 53.62703 | 9.98578 | 47 ft | 3 kts | 52° |
| 2026-04-24 20:49 | 53.62716 | 9.98605 | 47 ft | 3 kts | 49° |
| 2026-04-24 20:50 | 53.62730 | 9.98632 | 47 ft | 7 kts | 49° |
| 2026-04-24 20:50 | 53.62787 | 9.98747 | 47 ft | 14 kts | 50° |
| 2026-04-24 20:50 | 53.62845 | 9.98865 | 47 ft | 12 kts | 50° |
| 2026-04-24 20:50 | 53.62898 | 9.98972 | 47 ft | 11 kts | 50° |
| 2026-04-24 20:51 | 53.62946 | 9.99069 | 47 ft | 10 kts | 51° |
| 2026-04-24 20:51 | 53.62988 | 9.99155 | 47 ft | 9 kts | 50° |
| 2026-04-24 20:51 | 53.63024 | 9.99228 | 45 ft | 7 kts | 51° |
| 2026-04-24 20:51 | 53.63053 | 9.99290 | 47 ft | 6 kts | 54° |
| 2026-04-24 20:52 | 53.63076 | 9.99345 | 47 ft | 5 kts | 54° |
| 2026-04-24 20:52 | 53.63096 | 9.99394 | 47 ft | 5 kts | 56° |
| 2026-04-24 20:52 | 53.63138 | 9.99495 | 46 ft | 14 kts | 54° |
| 2026-04-24 20:52 | 53.63194 | 9.99615 | 47 ft | 12 kts | 50° |
| 2026-04-24 20:53 | 53.63230 | 9.99713 | 48 ft | 9 kts | 88° |
| 2026-04-24 20:53 | 53.63196 | 9.99781 | 48 ft | 7 kts | 152° |
| 2026-04-24 20:53 | 53.63155 | 9.99818 | 48 ft | 6 kts | 151° |
| 2026-04-24 20:53 | 53.63121 | 9.99849 | 48 ft | 6 kts | 151° |
| 2026-04-24 20:54 | 53.63066 | 9.99897 | 48 ft | 10 kts | 153° |
| 2026-04-24 20:54 | 53.63008 | 9.99946 | 48 ft | 9 kts | 153° |
| 2026-04-24 20:54 | 53.62954 | 9.99994 | 48 ft | 10 kts | 150° |
| 2026-04-24 20:54 | 53.62918 | 10.00059 | 48 ft | 7 kts | 71° |
| 2026-04-24 20:55 | 53.62953 | 10.00097 | 48 ft | 6 kts | 31° |
| 2026-04-24 20:55 | 53.62973 | 10.00141 | 48 ft | 2 kts | 94° |
| 2026-04-24 20:55 | 53.62962 | 10.00156 | 48 ft | 2 kts | 133° |
| 2026-04-24 20:55 | 53.62949 | 10.00185 | 48 ft | 4 kts | 119° |
| 2026-04-24 20:56 | 53.62939 | 10.00230 | 45 ft | 4 kts | 107° |
| 2026-04-24 20:56 | 53.62932 | 10.00268 | 48 ft | 3 kts | 108° |
| 2026-04-24 20:56 | 53.62928 | 10.00287 | 48 ft | 0 kts | 108° |